Eurodam — PHOS — position and weather

sailwx.info

Track history (hours):
 
Tides and Currents Weather Stations Pressure Air Temp Water Temp Dewpoint Dewpoint Depression Visibility Wind Speed Wind Dir Waves Ship Positions

Eurodam (Netherlands)

Last reported at 2014-Oct-02 04:31 UTC. Time now 2014-Oct-02 08:22 UTC.
Position N 42°20' W 070°39'.

Length 287 m; draft 8 m.

Type: Passenger vessel. MMSI: 245206000.

Date/timePositionNaut miles runAvg speedWind from/ knotsBaromVisibWave heightAir tempDewpointWater temp
2014-Oct-02 04:31N 42°20' W 070°39'9 9.9
2014-Oct-02 03:33N 42°24' W 070°51'7 0.5
2014-Oct-01 11:31N 42°20' W 070°59'1010.6
2014-Oct-01 10:33N 42°24' W 070°47'1211.4
2014-Oct-01 09:29N 42°33' W 070°35'1111.5
2014-Oct-01 08:30N 42°41' W 070°25'4411.1
2014-Oct-01 04:33N 43°22' W 070°03'1312.8
2014-Oct-01 03:33N 43°34' W 070°09'7 0.5
2014-Sep-30 14:34N 43°39' W 070°15'1010.4
2014-Sep-30 13:33N 43°32' W 070°05'  
Track history (hours):
 
Tides and Currents Weather Stations Pressure Air Temp Water Temp Dewpoint Dewpoint Depression Visibility Wind Speed Wind Dir Waves Ship Positions

Eurodam (Netherlands)

Last reported at 2014-Oct-02 04:31 UTC. Time now 2014-Oct-02 08:22 UTC.
Position N 42°20' W 070°39'.

Length 287 m; draft 8 m.

Type: Passenger vessel. MMSI: 245206000.

Date/timePositionNaut miles runAvg speedWind from/ knotsBaromVisibWave heightAir tempDewpointWater temp
2014-Oct-02 04:31N 42°20' W 070°39'9 9.9
2014-Oct-02 03:33N 42°24' W 070°51'7 0.5
2014-Oct-01 11:31N 42°20' W 070°59'1010.6
2014-Oct-01 10:33N 42°24' W 070°47'1211.4
2014-Oct-01 09:29N 42°33' W 070°35'1111.5
2014-Oct-01 08:30N 42°41' W 070°25'4411.1
2014-Oct-01 04:33N 43°22' W 070°03'1312.8
2014-Oct-01 03:33N 43°34' W 070°09'7 0.5
2014-Sep-30 14:34N 43°39' W 070°15'1010.4
2014-Sep-30 13:33N 43°32' W 070°05'  

Dump ship's entire track history